createdAt,value
2023-05-09T00:01:41.452Z,14.22
2023-05-09T00:04:26.477Z,14.19
2023-05-09T00:07:11.440Z,14.18
2023-05-09T00:09:56.281Z,14.22
2023-05-09T00:12:41.237Z,14.18
2023-05-09T00:15:26.095Z,14.21
2023-05-09T00:18:11.239Z,14.29
2023-05-09T00:20:56.297Z,14.17
2023-05-09T00:23:41.348Z,14.11
2023-05-09T00:26:26.223Z,14.12
2023-05-09T00:29:11.177Z,14.11
2023-05-09T00:31:56.256Z,14.06
2023-05-09T00:34:41.129Z,14.18
2023-05-09T00:37:26.108Z,13.98
2023-05-09T00:40:11.057Z,13.92
2023-05-09T00:42:56.196Z,13.93
2023-05-09T00:45:41.118Z,14.02
2023-05-09T00:48:26.133Z,13.82
2023-05-09T00:51:11.014Z,13.88
2023-05-09T00:53:56.100Z,13.75
2023-05-09T00:56:41.551Z,13.67
2023-05-09T00:59:26.430Z,13.66
2023-05-09T01:02:11.498Z,13.65
2023-05-09T01:04:56.365Z,13.61
2023-05-09T01:07:41.454Z,13.60
2023-05-09T01:10:26.451Z,13.57
2023-05-09T01:13:12.337Z,13.60
2023-05-09T01:15:57.479Z,13.60
2023-05-09T01:18:42.308Z,13.65
2023-05-09T01:21:27.204Z,13.69
2023-05-09T01:24:12.092Z,13.68
2023-05-09T01:26:57.029Z,13.73
2023-05-09T01:29:42.013Z,13.73
2023-05-09T01:32:26.997Z,13.77
2023-05-09T01:35:11.895Z,13.77
2023-05-09T01:37:56.708Z,13.78
2023-05-09T01:40:41.771Z,13.77
2023-05-09T01:43:26.641Z,13.74
2023-05-09T01:46:11.680Z,13.76
2023-05-09T01:48:56.577Z,13.72
2023-05-09T01:51:43.663Z,13.71
2023-05-09T01:54:29.087Z,13.68
2023-05-09T01:57:14.022Z,13.73
2023-05-09T01:59:59.239Z,13.74
2023-05-09T02:02:44.109Z,13.66
2023-05-09T02:05:28.935Z,13.63
2023-05-09T02:08:13.926Z,13.54
2023-05-09T02:10:58.976Z,13.47
2023-05-09T02:13:43.988Z,13.40
2023-05-09T02:16:28.904Z,13.39
2023-05-09T02:19:13.899Z,13.31
2023-05-09T02:21:59.015Z,13.18
2023-05-09T02:24:44.131Z,13.16
2023-05-09T02:27:29.128Z,13.10
2023-05-09T02:30:14.116Z,13.09
2023-05-09T02:32:59.212Z,13.07
2023-05-09T02:35:44.015Z,13.02
2023-05-09T02:38:28.760Z,12.97
2023-05-09T02:41:13.600Z,12.96
2023-05-09T02:44:00.121Z,12.98
2023-05-09T02:46:45.127Z,13.00
2023-05-09T02:49:32.451Z,13.02
2023-05-09T02:52:17.697Z,13.04
2023-05-09T02:55:03.689Z,13.04
2023-05-09T02:57:50.405Z,13.04
2023-05-09T03:00:36.887Z,12.98
2023-05-09T03:03:22.213Z,12.94
2023-05-09T03:06:07.167Z,12.92
2023-05-09T03:08:52.825Z,12.96
2023-05-09T03:11:37.841Z,12.92
2023-05-09T03:14:22.600Z,12.82
2023-05-09T03:17:07.644Z,12.78
2023-05-09T03:19:52.607Z,12.80
2023-05-09T03:22:37.447Z,12.79
2023-05-09T03:25:22.554Z,12.81
2023-05-09T03:28:07.257Z,12.75
2023-05-09T03:30:52.345Z,12.79
2023-05-09T03:33:37.294Z,12.72
2023-05-09T03:36:22.316Z,12.65
2023-05-09T03:39:07.179Z,12.65
2023-05-09T03:41:52.097Z,12.63
2023-05-09T03:44:37.080Z,12.66
2023-05-09T03:47:21.998Z,12.53
2023-05-09T03:50:06.984Z,12.49
2023-05-09T03:52:51.881Z,12.53
2023-05-09T03:55:36.886Z,12.44
2023-05-09T03:58:21.780Z,12.44
2023-05-09T04:01:06.746Z,12.48
2023-05-09T04:03:51.744Z,12.64
2023-05-09T04:06:36.734Z,12.52
2023-05-09T04:09:21.895Z,12.55
2023-05-09T04:12:06.968Z,12.50
2023-05-09T04:14:52.740Z,12.45
2023-05-09T04:17:37.766Z,12.48
2023-05-09T04:20:22.742Z,12.56
2023-05-09T04:23:07.654Z,12.53
2023-05-09T04:25:52.662Z,12.48
2023-05-09T04:28:37.578Z,12.51
2023-05-09T04:31:22.818Z,12.48
2023-05-09T04:34:08.019Z,12.47
2023-05-09T04:36:52.808Z,12.46
2023-05-09T04:39:37.703Z,12.44
2023-05-09T04:42:22.642Z,12.47
2023-05-09T04:45:07.556Z,12.49
2023-05-09T04:47:52.284Z,12.48
2023-05-09T04:50:37.117Z,12.46
2023-05-09T04:53:22.211Z,12.49
2023-05-09T04:56:07.270Z,12.47
2023-05-09T04:58:52.296Z,12.51
2023-05-09T05:01:37.112Z,12.54
2023-05-09T05:04:21.722Z,12.55
2023-05-09T05:07:06.676Z,12.66
2023-05-09T05:09:51.617Z,12.62
2023-05-09T05:12:36.681Z,12.64
2023-05-09T05:15:21.566Z,12.69
2023-05-09T05:18:06.575Z,12.76
2023-05-09T05:20:51.485Z,12.79
2023-05-09T05:23:36.724Z,12.86
2023-05-09T05:26:21.742Z,12.86
2023-05-09T05:29:06.860Z,12.88
2023-05-09T05:31:51.750Z,12.91
2023-05-09T05:34:36.696Z,12.90
2023-05-09T05:37:21.582Z,12.96
2023-05-09T05:40:06.728Z,13.03
2023-05-09T05:42:51.928Z,13.12
2023-05-09T05:45:37.006Z,13.14
2023-05-09T05:48:22.042Z,13.25
2023-05-09T05:51:06.932Z,13.03
2023-05-09T05:53:51.971Z,12.98
2023-05-09T05:56:36.894Z,13.10
2023-05-09T05:59:21.795Z,13.07
2023-05-09T06:02:06.793Z,13.01
2023-05-09T06:04:53.293Z,13.20
2023-05-09T06:07:38.856Z,13.33
2023-05-09T06:10:23.682Z,13.40
2023-05-09T06:13:08.761Z,13.49
2023-05-09T06:15:53.767Z,13.51
2023-05-09T06:18:39.227Z,13.63
2023-05-09T06:21:24.244Z,13.67
2023-05-09T06:24:16.568Z,13.78
2023-05-09T06:27:08.832Z,13.86
2023-05-09T06:29:53.766Z,13.90
2023-05-09T06:32:38.816Z,13.97
2023-05-09T06:35:23.643Z,14.04
2023-05-09T06:38:08.704Z,13.87
2023-05-09T06:40:53.637Z,13.87
2023-05-09T06:43:38.675Z,14.02
2023-05-09T06:46:23.673Z,14.00
2023-05-09T06:49:08.608Z,14.08
2023-05-09T06:51:53.589Z,14.04
2023-05-09T06:54:38.449Z,14.08
2023-05-09T06:57:23.412Z,14.13
2023-05-09T07:00:08.364Z,14.08
2023-05-09T07:02:53.492Z,13.92
2023-05-09T07:05:38.288Z,13.97
2023-05-09T07:08:23.068Z,13.94
2023-05-09T07:11:08.132Z,13.88
2023-05-09T07:13:53.300Z,13.92
2023-05-09T07:16:38.459Z,14.14
2023-05-09T07:19:23.392Z,14.35
2023-05-09T07:22:08.433Z,14.28
2023-05-09T07:24:53.294Z,14.44
2023-05-09T07:27:38.432Z,14.59
2023-05-09T07:30:23.450Z,14.65
2023-05-09T07:33:08.311Z,14.47
2023-05-09T07:35:53.603Z,14.74
2023-05-09T07:38:38.637Z,14.96
2023-05-09T07:41:23.674Z,14.65
2023-05-09T07:44:08.561Z,14.71
2023-05-09T07:46:53.592Z,14.75
2023-05-09T07:49:38.467Z,14.81
2023-05-09T07:52:23.373Z,14.93
2023-05-09T07:55:08.213Z,15.17
2023-05-09T07:57:53.219Z,15.02
2023-05-09T08:00:38.099Z,14.98
2023-05-09T08:03:23.223Z,15.07
2023-05-09T08:06:08.160Z,15.19
2023-05-09T08:08:53.030Z,15.23
2023-05-09T08:11:38.044Z,15.17
2023-05-09T08:14:22.784Z,15.59
2023-05-09T08:17:07.791Z,15.55
2023-05-09T08:19:52.941Z,15.87
2023-05-09T08:22:37.899Z,15.94
2023-05-09T08:25:22.933Z,16.10
2023-05-09T08:28:07.855Z,16.13
2023-05-09T08:30:52.836Z,16.24
2023-05-09T08:33:39.323Z,16.20
2023-05-09T08:36:25.587Z,16.11
2023-05-09T08:39:10.497Z,16.14
2023-05-09T08:41:55.597Z,16.30
2023-05-09T08:44:40.532Z,16.29
2023-05-09T08:47:25.444Z,16.36
2023-05-09T08:50:10.482Z,16.51
2023-05-09T08:52:55.407Z,16.56
2023-05-09T08:55:40.397Z,16.41
2023-05-09T08:58:25.341Z,16.74
2023-05-09T09:01:10.370Z,16.69
2023-05-09T09:03:55.442Z,16.99
2023-05-09T09:06:40.328Z,17.08
2023-05-09T09:09:25.350Z,17.18
2023-05-09T09:12:10.106Z,17.22
2023-05-09T09:14:55.150Z,17.22
2023-05-09T09:17:40.182Z,17.21
2023-05-09T09:20:25.092Z,17.27
2023-05-09T09:23:09.881Z,17.54
2023-05-09T09:25:54.845Z,17.62
2023-05-09T09:28:39.936Z,17.47
2023-05-09T09:31:24.852Z,17.61
2023-05-09T09:34:09.709Z,17.62
2023-05-09T09:36:54.749Z,17.80
2023-05-09T09:39:39.669Z,17.64
2023-05-09T09:42:24.619Z,17.85
2023-05-09T09:45:09.624Z,17.48
2023-05-09T09:47:54.636Z,17.72
2023-05-09T09:50:39.373Z,17.72
2023-05-09T09:53:24.282Z,17.72
2023-05-09T09:56:09.231Z,17.79
2023-05-09T09:58:54.354Z,17.77
2023-05-09T10:01:39.117Z,17.67
2023-05-09T10:04:24.042Z,17.65
2023-05-09T10:07:11.093Z,18.05
2023-05-09T10:09:57.596Z,17.92
2023-05-09T10:12:42.466Z,17.98
2023-05-09T10:15:28.716Z,18.25
2023-05-09T10:18:14.982Z,17.80
2023-05-09T10:21:00.356Z,18.38
2023-05-09T10:23:45.286Z,18.36
2023-05-09T10:26:30.230Z,18.57
2023-05-09T10:29:14.815Z,18.47
2023-05-09T10:31:59.781Z,18.86
2023-05-09T10:34:44.723Z,18.96
2023-05-09T10:37:30.947Z,18.90
2023-05-09T10:40:16.450Z,18.84
2023-05-09T10:43:01.478Z,19.09
2023-05-09T10:45:46.580Z,19.20
2023-05-09T10:48:31.515Z,19.15
2023-05-09T10:51:16.514Z,18.80
2023-05-09T10:54:01.471Z,18.88
2023-05-09T10:56:46.382Z,18.68
2023-05-09T10:59:31.393Z,18.95
2023-05-09T11:02:16.404Z,19.05
2023-05-09T11:05:01.407Z,19.08
2023-05-09T11:07:46.495Z,19.07
2023-05-09T11:10:31.354Z,19.12
2023-05-09T11:13:16.491Z,19.27
2023-05-09T11:16:01.489Z,19.13
2023-05-09T11:18:46.403Z,19.14
2023-05-09T11:21:31.412Z,19.19
2023-05-09T11:24:16.566Z,19.27
2023-05-09T11:27:01.548Z,19.21
2023-05-09T11:29:46.538Z,19.34
2023-05-09T11:32:31.486Z,19.53
2023-05-09T11:35:16.662Z,19.52
2023-05-09T11:38:01.610Z,19.82
2023-05-09T11:40:46.585Z,19.84
2023-05-09T11:43:31.586Z,19.87
2023-05-09T11:46:16.565Z,19.94
2023-05-09T11:49:01.568Z,20.01
2023-05-09T11:51:49.325Z,19.90
2023-05-09T11:54:34.368Z,20.16
2023-05-09T11:57:19.534Z,19.99
2023-05-09T12:00:04.316Z,19.93
2023-05-09T12:02:49.456Z,20.04
2023-05-09T12:05:34.313Z,20.03
2023-05-09T12:08:19.219Z,19.89
2023-05-09T12:11:04.100Z,20.04
2023-05-09T12:13:49.134Z,20.07
2023-05-09T12:16:36.920Z,19.99
2023-05-09T12:19:21.798Z,19.93
2023-05-09T12:22:06.936Z,20.05
2023-05-09T12:24:51.730Z,20.18
2023-05-09T12:27:36.852Z,20.12
2023-05-09T12:30:21.916Z,20.09
2023-05-09T12:33:06.878Z,19.89
2023-05-09T12:35:52.858Z,19.98
2023-05-09T12:38:38.776Z,20.01
2023-05-09T12:41:37.120Z,20.02
2023-05-09T12:44:24.130Z,19.91
2023-05-09T12:47:09.120Z,19.83
2023-05-09T12:49:54.045Z,19.86
2023-05-09T12:52:46.933Z,19.74
2023-05-09T12:55:43.572Z,19.49
2023-05-09T12:58:28.524Z,19.63
2023-05-09T13:01:13.420Z,19.52
2023-05-09T13:03:58.245Z,19.57
2023-05-09T13:06:43.067Z,19.54
2023-05-09T13:09:28.176Z,19.58
2023-05-09T13:12:13.038Z,19.58
2023-05-09T13:14:58.104Z,19.54
2023-05-09T13:17:43.105Z,19.51
2023-05-09T13:20:27.909Z,19.31
2023-05-09T13:23:12.942Z,19.19
2023-05-09T13:25:57.869Z,19.27
2023-05-09T13:28:42.584Z,19.34
2023-05-09T13:31:27.341Z,19.27
2023-05-09T13:34:12.454Z,19.15
2023-05-09T13:36:57.453Z,19.19
2023-05-09T13:39:42.373Z,19.10
2023-05-09T13:42:27.253Z,18.83
2023-05-09T13:45:12.450Z,18.68
2023-05-09T13:47:57.184Z,18.71
2023-05-09T13:50:42.143Z,18.33
2023-05-09T13:53:26.861Z,18.13
2023-05-09T13:56:11.747Z,18.25
2023-05-09T13:58:56.789Z,18.23
2023-05-09T14:01:43.637Z,18.30
2023-05-09T14:04:28.701Z,18.31
2023-05-09T14:07:13.565Z,18.23
2023-05-09T14:10:10.491Z,18.13
2023-05-09T14:12:56.390Z,18.18
2023-05-09T14:15:41.285Z,18.08
2023-05-09T14:18:26.168Z,18.04
2023-05-09T14:21:11.127Z,17.90
2023-05-09T14:23:56.161Z,17.89
2023-05-09T14:29:25.777Z,17.66
2023-05-09T14:32:10.752Z,17.54
2023-05-09T14:34:55.813Z,17.57
2023-05-09T14:37:40.464Z,17.58
2023-05-09T14:40:27.915Z,17.47
2023-05-09T14:43:13.008Z,17.57
2023-05-09T14:45:57.869Z,17.65
2023-05-09T14:48:42.853Z,17.67
2023-05-09T14:51:27.788Z,17.75
2023-05-09T14:54:12.967Z,17.83
2023-05-09T14:56:57.942Z,17.92
2023-05-09T14:59:42.897Z,17.83
2023-05-09T15:02:27.906Z,17.86
2023-05-09T15:05:12.671Z,17.70
2023-05-09T15:07:57.647Z,17.43
2023-05-09T15:10:42.416Z,17.34
2023-05-09T15:13:27.488Z,17.32
2023-05-09T15:16:12.422Z,17.30
2023-05-09T15:18:57.329Z,17.13
2023-05-09T15:21:42.249Z,17.12
2023-05-09T15:24:27.324Z,17.14
2023-05-09T15:27:12.182Z,17.01
2023-05-09T15:29:57.147Z,17.00
2023-05-09T15:32:42.342Z,16.87
2023-05-09T15:35:27.024Z,16.80
2023-05-09T15:38:13.905Z,16.74
2023-05-09T15:40:58.821Z,16.72
2023-05-09T15:43:43.954Z,16.52
2023-05-09T15:46:28.855Z,16.40
2023-05-09T15:49:13.686Z,16.32
2023-05-09T15:51:58.733Z,16.35
2023-05-09T15:54:43.731Z,16.33
2023-05-09T15:57:28.769Z,16.29
2023-05-09T16:00:13.803Z,16.26
2023-05-09T16:02:59.214Z,16.30
2023-05-09T16:05:44.107Z,16.26
2023-05-09T16:08:29.014Z,16.24
2023-05-09T16:11:14.108Z,16.14
2023-05-09T16:13:58.983Z,16.23
2023-05-09T16:16:44.071Z,16.20
2023-05-09T16:19:28.902Z,16.15
2023-05-09T16:22:13.915Z,16.11
2023-05-09T16:24:58.828Z,16.03
2023-05-09T16:27:43.825Z,15.95
2023-05-09T16:30:28.730Z,15.94
2023-05-09T16:33:13.580Z,15.92
2023-05-09T16:35:58.625Z,15.92
2023-05-09T16:38:43.483Z,15.88
2023-05-09T16:41:28.473Z,15.81
2023-05-09T16:44:13.556Z,15.76
2023-05-09T16:46:58.404Z,15.81
2023-05-09T16:49:43.426Z,15.82
2023-05-09T16:52:28.323Z,15.74
2023-05-09T16:55:13.427Z,15.69
2023-05-09T16:57:58.366Z,15.72
2023-05-09T17:00:43.432Z,15.72
2023-05-09T17:03:28.449Z,15.57
2023-05-09T17:06:13.436Z,15.53
2023-05-09T17:08:58.333Z,15.59
2023-05-09T17:11:43.202Z,15.58
2023-05-09T17:14:28.145Z,15.52
2023-05-09T17:17:13.058Z,15.46
2023-05-09T17:19:58.066Z,15.46
2023-05-09T17:22:42.921Z,15.46
2023-05-09T17:25:27.828Z,15.40
2023-05-09T17:28:12.759Z,15.42
2023-05-09T17:30:57.542Z,15.38
2023-05-09T17:33:42.266Z,15.27
2023-05-09T17:36:27.281Z,15.22
2023-05-09T17:39:12.190Z,15.09
2023-05-09T17:41:57.370Z,15.00
2023-05-09T17:44:44.259Z,14.97
2023-05-09T17:47:29.531Z,14.96
2023-05-09T17:50:14.647Z,14.93
2023-05-09T17:53:00.174Z,14.98
2023-05-09T17:55:45.114Z,14.90
2023-05-09T17:58:29.988Z,14.93
2023-05-09T18:01:15.252Z,14.86
2023-05-09T18:04:00.361Z,14.85
2023-05-09T18:06:45.388Z,14.82
2023-05-09T18:09:30.439Z,14.76
2023-05-09T18:12:15.399Z,14.70
2023-05-09T18:15:00.626Z,14.66
2023-05-09T18:17:45.401Z,14.66
2023-05-09T18:20:30.343Z,14.65
2023-05-09T18:23:15.374Z,14.57
2023-05-09T18:26:00.246Z,14.57
2023-05-09T18:28:45.108Z,14.59
2023-05-09T18:31:30.133Z,14.57
2023-05-09T18:34:17.564Z,14.45
2023-05-09T18:37:02.571Z,14.43
2023-05-09T18:39:47.505Z,14.36
2023-05-09T18:42:32.860Z,14.27
2023-05-09T18:45:17.694Z,14.23
2023-05-09T18:48:03.039Z,14.27
2023-05-09T18:50:48.166Z,14.27
2023-05-09T18:53:33.407Z,14.14
2023-05-09T18:56:18.851Z,14.14
2023-05-09T18:59:03.842Z,14.12
2023-05-09T19:01:49.059Z,14.02
2023-05-09T19:04:37.421Z,14.03
2023-05-09T19:07:22.699Z,14.00
2023-05-09T19:10:08.012Z,13.94
2023-05-09T19:12:53.122Z,13.92
2023-05-09T19:15:42.650Z,13.83
2023-05-09T19:18:28.015Z,13.76
2023-05-09T19:21:13.349Z,13.78
2023-05-09T19:23:58.666Z,13.70
2023-05-09T19:26:43.480Z,13.72
2023-05-09T19:29:28.732Z,13.71
2023-05-09T19:32:14.053Z,13.69
2023-05-09T19:34:59.227Z,13.75
2023-05-09T19:37:46.925Z,13.74
2023-05-09T19:40:32.007Z,13.71
2023-05-09T19:43:17.141Z,13.69
2023-05-09T19:46:02.237Z,13.67
2023-05-09T19:48:47.328Z,13.64
2023-05-09T19:51:32.221Z,13.75
2023-05-09T19:54:16.978Z,13.76
2023-05-09T19:57:02.245Z,13.78
2023-05-09T19:59:49.704Z,13.83
2023-05-09T20:02:34.605Z,13.79
2023-05-09T20:05:19.575Z,13.82
2023-05-09T20:08:04.333Z,13.76
2023-05-09T20:10:49.528Z,13.75
2023-05-09T20:13:34.498Z,13.56
2023-05-09T20:16:19.510Z,13.62
2023-05-09T20:19:04.486Z,13.68
2023-05-09T20:21:49.739Z,13.63
2023-05-09T20:24:35.260Z,13.52
2023-05-09T20:27:20.250Z,13.39
2023-05-09T20:30:05.445Z,13.29
2023-05-09T20:32:50.736Z,13.36
2023-05-09T20:35:35.902Z,13.38
2023-05-09T20:38:20.735Z,13.45
2023-05-09T20:41:05.769Z,13.47
2023-05-09T20:43:50.685Z,13.44
2023-05-09T20:46:35.679Z,13.47
2023-05-09T20:49:20.676Z,13.35
2023-05-09T20:52:05.611Z,13.28
2023-05-09T20:54:50.612Z,13.19
2023-05-09T20:57:35.529Z,13.22
2023-05-09T21:00:20.559Z,13.19
2023-05-09T21:03:05.616Z,13.20
2023-05-09T21:05:50.342Z,13.17
2023-05-09T21:08:35.367Z,13.16
2023-05-09T21:11:20.242Z,13.14
2023-05-09T21:14:05.118Z,13.11
2023-05-09T21:16:50.091Z,13.12
2023-05-09T21:19:34.942Z,13.10
2023-05-09T21:22:19.843Z,13.09
2023-05-09T21:25:04.981Z,13.07
2023-05-09T21:27:49.981Z,13.02
2023-05-09T21:30:35.178Z,12.99
2023-05-09T21:33:20.266Z,12.94
2023-05-09T21:36:05.184Z,12.91
2023-05-09T21:38:50.228Z,12.85
2023-05-09T21:41:35.058Z,12.86
2023-05-09T21:44:20.010Z,12.96
2023-05-09T21:47:05.137Z,12.83
2023-05-09T21:49:49.961Z,12.88
2023-05-09T21:52:35.122Z,12.84
2023-05-09T21:55:20.019Z,12.83
2023-05-09T21:58:05.314Z,12.73
2023-05-09T22:00:50.285Z,12.68
2023-05-09T22:03:35.378Z,12.69
2023-05-09T22:06:20.164Z,12.62
2023-05-09T22:09:05.011Z,12.62
2023-05-09T22:11:49.932Z,12.60
2023-05-09T22:14:39.490Z,12.56
2023-05-09T22:17:33.502Z,12.62
2023-05-09T22:20:18.755Z,12.64
2023-05-09T22:23:03.997Z,12.58
2023-05-09T22:25:48.894Z,12.58
2023-05-09T22:28:33.914Z,12.50
2023-05-09T22:31:18.759Z,12.50
2023-05-09T22:34:03.864Z,12.52
2023-05-09T22:36:48.640Z,12.60
2023-05-09T22:39:33.728Z,12.60
2023-05-09T22:42:18.780Z,12.66
2023-05-09T22:45:03.613Z,12.65
2023-05-09T22:47:48.735Z,12.60
2023-05-09T22:50:33.630Z,12.59
2023-05-09T22:53:18.588Z,12.63
2023-05-09T22:56:03.416Z,12.68
2023-05-09T22:58:48.416Z,12.63
2023-05-09T23:01:33.378Z,12.65
2023-05-09T23:04:18.445Z,12.68
2023-05-09T23:07:03.337Z,12.71
2023-05-09T23:09:48.169Z,12.62
2023-05-09T23:12:33.295Z,12.63
2023-05-09T23:15:18.363Z,12.66
2023-05-09T23:18:03.396Z,12.63
2023-05-09T23:20:48.062Z,12.51
2023-05-09T23:23:32.909Z,12.42
2023-05-09T23:26:17.817Z,12.43
2023-05-09T23:29:02.921Z,12.43
2023-05-09T23:31:47.910Z,12.44
2023-05-09T23:34:32.869Z,12.40
2023-05-09T23:37:18.019Z,12.46
2023-05-09T23:40:02.927Z,12.50
2023-05-09T23:42:47.832Z,12.45
2023-05-09T23:45:32.689Z,12.34
2023-05-09T23:48:17.771Z,12.31
2023-05-09T23:51:02.712Z,12.33
2023-05-09T23:53:47.720Z,12.34
2023-05-09T23:56:32.789Z,12.30
2023-05-09T23:59:17.668Z,12.33
